Atlantida Azul — CSYG2 — position and weather

sailwx.info

Track history (hours):
 
Tides and Currents Weather Stations Pressure Air Temp Water Temp Dewpoint Dewpoint Depression Visibility Wind Speed Wind Dir Waves Ship Positions

Atlantida Azul

Last reported at 2016-Jul-29 11:33 UTC. Time now 2016-Jul-29 15:58 UTC.
Position N 37°55' W 008°51'.

Length 16 m.

Type: Pilot. MMSI: 263672880.

Date/timePositionNaut miles runAvg speedWind from/ knotsBaromVisibWave heightAir tempDewpointWater temp
2016-Jul-29 11:33N 37°55' W 008°51'1 0.1
2016-Jul-28 20:09N 37°56' W 008°51'0 0.4
2016-Jul-28 19:33N 37°56' W 008°51'2 0.2
2016-Jul-28 09:32N 37°55' W 008°53'2 0.5
2016-Jul-28 04:32N 37°56' W 008°51'0 0.0
2016-Jul-27 18:05N 37°56' W 008°51'1 1.4
2016-Jul-27 17:33N 37°56' W 008°52'3 1.5
2016-Jul-27 15:33N 37°54' W 008°50'4 1.8
2016-Jul-27 13:32N 37°57' W 008°52'1 0.2
2016-Jul-27 06:18N 37°56' W 008°51'1 1.7
2016-Jul-27 05:33N 37°55' W 008°51'2 2.4
2016-Jul-27 04:33N 37°57' W 008°53'1 1.4
2016-Jul-27 03:32N 37°56' W 008°51'2 2.1
2016-Jul-27 02:32N 37°54' W 008°50'2 2.0
2016-Jul-27 01:32N 37°56' W 008°51'0 0.1
2016-Jul-27 00:30N 37°56' W 008°51'2 2.1
2016-Jul-26 23:33N 37°54' W 008°50'2 0.4
2016-Jul-26 18:08N 37°56' W 008°51'0 0.6
2016-Jul-26 17:33N 37°56' W 008°51'0 0.1
2016-Jul-26 14:22N 37°56' W 008°51'0 0.0
2016-Jul-26 13:31N 37°56' W 008°51'0 0.0
2016-Jul-26 12:31N 37°56' W 008°51'0 0.0
2016-Jul-26 11:31N 37°56' W 008°51'0 0.0
2016-Jul-26 10:31N 37°56' W 008°51'0 0.0
2016-Jul-26 09:31N 37°56' W 008°51'0 0.0
2016-Jul-26 01:25N 37°56' W 008°51'0 0.2
2016-Jul-26 00:31N 37°56' W 008°51'0 0.2
2016-Jul-25 23:32N 37°56' W 008°51'0 0.0
2016-Jul-25 22:32N 37°56' W 008°51'2 0.4
2016-Jul-25 17:33N 37°57' W 008°53'2 1.9
2016-Jul-25 16:32N 37°56' W 008°51'0 0.4
2016-Jul-25 15:33N 37°56' W 008°51'2 0.3
2016-Jul-25 07:33N 37°54' W 008°51'3 0.5
2016-Jul-25 02:12N 37°56' W 008°51'0 0.5
2016-Jul-25 01:32N 37°56' W 008°51'0 0.3
2016-Jul-25 00:32N 37°56' W 008°51'0 0.0
2016-Jul-24 11:33N 37°56' W 008°51'0 0.4
2016-Jul-24 10:33N 37°56' W 008°51'0 0.0
2016-Jul-24 08:07N 37°56' W 008°51'0 0.5
2016-Jul-24 07:32N 37°56' W 008°51'0 0.3
2016-Jul-24 06:30N 37°56' W 008°51'0 0.0
2016-Jul-24 03:15N 37°56' W 008°51'0 0.0
2016-Jul-23 19:17N 37°56' W 008°51'0 0.0
2016-Jul-23 17:05N 37°56' W 008°51'0 0.4
2016-Jul-23 16:33N 37°56' W 008°51'0 0.2
2016-Jul-23 15:33N 37°56' W 008°51'0 0.3
2016-Jul-23 14:33N 37°56' W 008°51'0 0.1
2016-Jul-23 13:33N 37°56' W 008°51'0 0.0
2016-Jul-22 23:15N 37°56' W 008°51'0 0.0
2016-Jul-22 21:30N 37°56' W 008°51'1 1.4
2016-Jul-22 20:33N 37°55' W 008°52'1 1.1
2016-Jul-22 19:32N 37°56' W 008°51'0 0.0
2016-Jul-22 10:21N 37°56' W 008°51'0 0.0
2016-Jul-22 08:09N 37°56' W 008°51'0 0.7
2016-Jul-22 07:33N 37°56' W 008°51'0 0.1
2016-Jul-22 00:33N 37°55' W 008°51'3 2.6
2016-Jul-21 23:33N 37°57' W 008°53'2 0.1
2016-Jul-21 09:32N 37°56' W 008°51'0 0.0
2016-Jul-21 01:18N 37°56' W 008°51'0 0.5
2016-Jul-21 00:33N 37°56' W 008°51'0 0.1
2016-Jul-20 20:29N 37°56' W 008°51'1 0.1
2016-Jul-20 09:31N 37°57' W 008°52'2 1.9
2016-Jul-20 08:33N 37°56' W 008°51'0 0.4
2016-Jul-20 07:16N 37°56' W 008°51'0 0.0
2016-Jul-19 20:19N 37°56' W 008°51'0 0.1
2016-Jul-19 19:33N 37°56' W 008°51'0 0.0
2016-Jul-19 13:18N 37°56' W 008°51'  
Track history (hours):
 
Tides and Currents Weather Stations Pressure Air Temp Water Temp Dewpoint Dewpoint Depression Visibility Wind Speed Wind Dir Waves Ship Positions

Atlantida Azul

Last reported at 2016-Jul-29 11:33 UTC. Time now 2016-Jul-29 15:58 UTC.
Position N 37°55' W 008°51'.

Length 16 m.

Type: Pilot. MMSI: 263672880.

Date/timePositionNaut miles runAvg speedWind from/ knotsBaromVisibWave heightAir tempDewpointWater temp
2016-Jul-29 11:33N 37°55' W 008°51'1 0.1
2016-Jul-28 20:09N 37°56' W 008°51'0 0.4
2016-Jul-28 19:33N 37°56' W 008°51'2 0.2
2016-Jul-28 09:32N 37°55' W 008°53'2 0.5
2016-Jul-28 04:32N 37°56' W 008°51'0 0.0
2016-Jul-27 18:05N 37°56' W 008°51'1 1.4
2016-Jul-27 17:33N 37°56' W 008°52'3 1.5
2016-Jul-27 15:33N 37°54' W 008°50'4 1.8
2016-Jul-27 13:32N 37°57' W 008°52'1 0.2
2016-Jul-27 06:18N 37°56' W 008°51'1 1.7
2016-Jul-27 05:33N 37°55' W 008°51'2 2.4
2016-Jul-27 04:33N 37°57' W 008°53'1 1.4
2016-Jul-27 03:32N 37°56' W 008°51'2 2.1
2016-Jul-27 02:32N 37°54' W 008°50'2 2.0
2016-Jul-27 01:32N 37°56' W 008°51'0 0.1
2016-Jul-27 00:30N 37°56' W 008°51'2 2.1
2016-Jul-26 23:33N 37°54' W 008°50'2 0.4
2016-Jul-26 18:08N 37°56' W 008°51'0 0.6
2016-Jul-26 17:33N 37°56' W 008°51'0 0.1
2016-Jul-26 14:22N 37°56' W 008°51'0 0.0
2016-Jul-26 13:31N 37°56' W 008°51'0 0.0
2016-Jul-26 12:31N 37°56' W 008°51'0 0.0
2016-Jul-26 11:31N 37°56' W 008°51'0 0.0
2016-Jul-26 10:31N 37°56' W 008°51'0 0.0
2016-Jul-26 09:31N 37°56' W 008°51'0 0.0
2016-Jul-26 01:25N 37°56' W 008°51'0 0.2
2016-Jul-26 00:31N 37°56' W 008°51'0 0.2
2016-Jul-25 23:32N 37°56' W 008°51'0 0.0
2016-Jul-25 22:32N 37°56' W 008°51'2 0.4
2016-Jul-25 17:33N 37°57' W 008°53'2 1.9
2016-Jul-25 16:32N 37°56' W 008°51'0 0.4
2016-Jul-25 15:33N 37°56' W 008°51'2 0.3
2016-Jul-25 07:33N 37°54' W 008°51'3 0.5
2016-Jul-25 02:12N 37°56' W 008°51'0 0.5
2016-Jul-25 01:32N 37°56' W 008°51'0 0.3
2016-Jul-25 00:32N 37°56' W 008°51'0 0.0
2016-Jul-24 11:33N 37°56' W 008°51'0 0.4
2016-Jul-24 10:33N 37°56' W 008°51'0 0.0
2016-Jul-24 08:07N 37°56' W 008°51'0 0.5
2016-Jul-24 07:32N 37°56' W 008°51'0 0.3
2016-Jul-24 06:30N 37°56' W 008°51'0 0.0
2016-Jul-24 03:15N 37°56' W 008°51'0 0.0
2016-Jul-23 19:17N 37°56' W 008°51'0 0.0
2016-Jul-23 17:05N 37°56' W 008°51'0 0.4
2016-Jul-23 16:33N 37°56' W 008°51'0 0.2
2016-Jul-23 15:33N 37°56' W 008°51'0 0.3
2016-Jul-23 14:33N 37°56' W 008°51'0 0.1
2016-Jul-23 13:33N 37°56' W 008°51'0 0.0
2016-Jul-22 23:15N 37°56' W 008°51'0 0.0
2016-Jul-22 21:30N 37°56' W 008°51'1 1.4
2016-Jul-22 20:33N 37°55' W 008°52'1 1.1
2016-Jul-22 19:32N 37°56' W 008°51'0 0.0
2016-Jul-22 10:21N 37°56' W 008°51'0 0.0
2016-Jul-22 08:09N 37°56' W 008°51'0 0.7
2016-Jul-22 07:33N 37°56' W 008°51'0 0.1
2016-Jul-22 00:33N 37°55' W 008°51'3 2.6
2016-Jul-21 23:33N 37°57' W 008°53'2 0.1
2016-Jul-21 09:32N 37°56' W 008°51'0 0.0
2016-Jul-21 01:18N 37°56' W 008°51'0 0.5
2016-Jul-21 00:33N 37°56' W 008°51'0 0.1
2016-Jul-20 20:29N 37°56' W 008°51'1 0.1
2016-Jul-20 09:31N 37°57' W 008°52'2 1.9
2016-Jul-20 08:33N 37°56' W 008°51'0 0.4
2016-Jul-20 07:16N 37°56' W 008°51'0 0.0
2016-Jul-19 20:19N 37°56' W 008°51'0 0.1
2016-Jul-19 19:33N 37°56' W 008°51'0 0.0
2016-Jul-19 13:18N 37°56' W 008°51'  

Dump ship's entire track history